Terminal Aerodrome Forecast
Issued by NWS Hastings, NE

Home | Current Version | Previous Version | Text Only | Print | Product List | Glossary On
Versions: 1 2 3 4 5 6 7 8 9 10 11 12 13 14 15 16 17 18 19 20 21 22 23 24 25 26 27 28 29 30 31 32 33 34 35 36 37 38 39 40
000
FTUS43 KGID 241238 AAA
TAFGRI
TAF AMD
KGRI 241238Z 2413/2512 11005KT 2SM BR BKN003
      TEMPO 2413/2414 1/4SM -DZ FG OVC002
     FM241500 13008KT P6SM VCSH BKN003 OVC015
     FM241900 14010KT P6SM VCTS SCT015CB BKN025
     FM250300 27010KT P6SM VCTS SCT025CB BKN050=

USA.gov is the U.S. government's official web portal to all federal, state and local government web resources and services.